createdAt,value
2018-07-15T00:02:35.840Z,101616.22
2018-07-15T00:07:38.028Z,101618.08
2018-07-15T00:12:40.210Z,101621.88
2018-07-15T00:17:42.354Z,101610.83
2018-07-15T00:22:44.495Z,101609.24
2018-07-15T00:27:46.714Z,101606.47
2018-07-15T00:32:48.923Z,101605.28
2018-07-15T00:37:51.133Z,101604.84
2018-07-15T00:42:53.307Z,101611.79
2018-07-15T00:47:55.496Z,101606.98
2018-07-15T00:52:58.391Z,101614.19
2018-07-15T00:58:00.583Z,101619.61
2018-07-15T01:03:02.754Z,101617.86
2018-07-15T01:08:04.982Z,101617.99
2018-07-15T01:13:07.192Z,101618.45
2018-07-15T01:18:09.366Z,101616.08
2018-07-15T01:23:11.511Z,101618.38
2018-07-15T01:28:13.723Z,101614.66
2018-07-15T01:33:15.872Z,101616.09
2018-07-15T01:38:18.029Z,101614.53
2018-07-15T01:43:20.176Z,101619.06
2018-07-15T01:48:22.348Z,101607.74
2018-07-15T01:53:24.516Z,101615.73
2018-07-15T01:58:26.668Z,101616.80
2018-07-15T02:03:28.988Z,101606.78
2018-07-15T02:08:31.149Z,101612.75
2018-07-15T02:13:33.276Z,101609.59
2018-07-15T02:18:35.451Z,101616.83
2018-07-15T02:23:37.664Z,101612.94
2018-07-15T02:28:39.872Z,101616.39
2018-07-15T02:33:42.033Z,101615.12
2018-07-15T02:38:44.239Z,101616.55
2018-07-15T02:43:46.403Z,101606.58
2018-07-15T02:48:48.588Z,101599.87
2018-07-15T02:53:50.770Z,101600.16
2018-07-15T02:58:52.952Z,101598.58
2018-07-15T03:03:55.119Z,101601.48
2018-07-15T03:08:57.252Z,101596.75
2018-07-15T03:13:59.407Z,101588.02
2018-07-15T03:19:01.550Z,101591.03
2018-07-15T03:24:03.718Z,101595.39
2018-07-15T03:29:05.925Z,101596.16
2018-07-15T03:34:08.136Z,101595.45
2018-07-15T03:39:10.414Z,101598.67
2018-07-15T03:44:12.527Z,101600.98
2018-07-15T03:49:14.675Z,101598.20
2018-07-15T03:54:16.861Z,101593.52
2018-07-15T03:59:19.000Z,101596.13
2018-07-15T04:04:21.162Z,101593.47
2018-07-15T04:09:23.325Z,101595.45
2018-07-15T04:14:25.513Z,101598.23
2018-07-15T04:19:27.720Z,101599.51
2018-07-15T04:24:29.848Z,101599.67
2018-07-15T04:29:32.010Z,101601.14
2018-07-15T04:34:34.154Z,101597.36
2018-07-15T04:39:36.273Z,101603.21
2018-07-15T04:44:38.408Z,101604.48
2018-07-15T04:49:40.534Z,101599.34
2018-07-15T04:54:42.654Z,101604.92
2018-07-15T04:59:44.770Z,101605.27
2018-07-15T05:04:46.915Z,101603.78
2018-07-15T05:09:49.042Z,101605.97
2018-07-15T05:14:51.176Z,101597.33
2018-07-15T05:19:53.369Z,101604.38
2018-07-15T05:24:55.561Z,101601.70
2018-07-15T05:29:57.764Z,101607.78
2018-07-15T05:34:59.942Z,101612.00
2018-07-15T05:40:02.126Z,101606.80
2018-07-15T05:45:04.315Z,101617.88
2018-07-15T05:50:06.468Z,101615.20
2018-07-15T05:55:08.664Z,101621.27
2018-07-15T06:00:10.848Z,101621.59
2018-07-15T06:05:13.013Z,101625.07
2018-07-15T06:10:15.200Z,101622.83
2018-07-15T06:15:17.342Z,101630.95
2018-07-15T06:20:19.472Z,101632.39
2018-07-15T06:25:21.652Z,101636.11
2018-07-15T06:30:23.836Z,101636.63
2018-07-15T06:35:26.008Z,101630.19
2018-07-15T06:40:28.217Z,101627.28
2018-07-15T06:45:30.415Z,101620.23
2018-07-15T06:50:32.588Z,101622.53
2018-07-15T06:55:34.777Z,101618.56
2018-07-15T07:00:36.962Z,101623.92
2018-07-15T07:05:39.143Z,101623.20
2018-07-15T07:10:41.295Z,101624.70
2018-07-15T07:15:43.485Z,101620.25
2018-07-15T07:20:45.656Z,101612.65
2018-07-15T07:25:47.873Z,101617.24
2018-07-15T07:30:50.069Z,101621.92
2018-07-15T07:35:52.267Z,101620.59
2018-07-15T07:40:54.439Z,101379.27
2018-07-15T07:45:56.585Z,101627.29
2018-07-15T07:50:58.726Z,101623.53
2018-07-15T07:56:01.744Z,101625.06
2018-07-15T08:01:03.918Z,101621.03
2018-07-15T08:06:06.127Z,101614.52
2018-07-15T08:11:08.308Z,101622.88
2018-07-15T08:16:10.444Z,101625.30
2018-07-15T08:21:12.656Z,101620.05
2018-07-15T08:26:14.831Z,101613.74
2018-07-15T08:31:18.429Z,101612.94
2018-07-15T08:36:20.647Z,101611.65
2018-07-15T08:41:22.811Z,101612.01
2018-07-15T08:46:25.001Z,101611.59
2018-07-15T08:51:27.162Z,101615.05
2018-07-15T08:56:29.369Z,101617.95
2018-07-15T09:01:31.552Z,101611.89
2018-07-15T09:06:33.739Z,101615.36
2018-07-15T09:11:35.969Z,101607.59
2018-07-15T09:16:38.196Z,101599.58
2018-07-15T09:21:40.459Z,101598.06
2018-07-15T09:26:42.675Z,101603.08
2018-07-15T09:31:45.676Z,101605.89
2018-07-15T09:36:47.868Z,101599.58
2018-07-15T09:41:50.140Z,101595.57
2018-07-15T09:46:52.332Z,101586.72
2018-07-15T09:51:54.551Z,101589.30
2018-07-15T09:56:56.697Z,101593.86
2018-07-15T10:01:58.935Z,101594.33
2018-07-15T10:07:01.136Z,101584.59
2018-07-15T10:12:03.354Z,101588.90
2018-07-15T10:17:05.564Z,101586.66
2018-07-15T10:22:07.759Z,101587.50
2018-07-15T10:27:09.940Z,101584.58
2018-07-15T10:32:12.227Z,101587.23
2018-07-15T10:37:14.405Z,101582.53
2018-07-15T10:42:16.636Z,101576.52
2018-07-15T10:47:18.896Z,101578.20
2018-07-15T10:52:21.253Z,101576.92
2018-07-15T10:57:23.459Z,101574.31
2018-07-15T11:02:25.723Z,101562.95
2018-07-15T11:07:27.926Z,101569.61
2018-07-15T11:12:30.219Z,101556.98
2018-07-15T11:17:32.478Z,101557.67
2018-07-15T11:22:35.070Z,101556.76
2018-07-15T11:27:37.264Z,101556.17
2018-07-15T11:32:39.698Z,101550.70
2018-07-15T11:37:42.159Z,101543.14
2018-07-15T11:42:44.404Z,101547.59
2018-07-15T11:47:46.711Z,101536.75
2018-07-15T11:52:49.005Z,101535.73
2018-07-15T11:57:51.279Z,101534.80
2018-07-15T12:02:53.895Z,101535.19
2018-07-15T12:07:56.071Z,101529.69
2018-07-15T12:12:58.268Z,101511.59
2018-07-15T12:18:00.480Z,101522.31
2018-07-15T12:23:02.782Z,101518.63
2018-07-15T12:28:05.367Z,101515.78
2018-07-15T12:33:08.205Z,101515.19
2018-07-15T12:38:10.440Z,101512.81
2018-07-15T12:43:15.689Z,101508.78
2018-07-15T12:48:19.704Z,101504.84
2018-07-15T12:53:22.672Z,101496.88
2018-07-15T12:58:25.031Z,101487.03
2018-07-15T13:03:27.618Z,101483.00
2018-07-15T13:08:31.793Z,101476.34
2018-07-15T13:13:36.184Z,101475.13
2018-07-15T13:18:41.330Z,101466.34
2018-07-15T13:23:45.213Z,101465.64
2018-07-15T13:28:52.049Z,101454.84
2018-07-15T13:33:58.439Z,101460.11
2018-07-15T13:39:00.705Z,101447.02
2018-07-15T13:44:02.996Z,101451.41
2018-07-15T13:49:05.359Z,101447.96
2018-07-15T13:54:07.559Z,101443.24
2018-07-15T13:59:09.693Z,101438.97
2018-07-15T14:04:11.874Z,101438.20
2018-07-15T14:09:14.035Z,101442.78
2018-07-15T14:14:16.209Z,101444.38
2018-07-15T14:19:18.420Z,101445.85
2018-07-15T14:24:20.650Z,101430.78
2018-07-15T14:29:22.898Z,101418.30
2018-07-15T14:34:25.146Z,101416.70
2018-07-15T14:39:33.612Z,101415.73
2018-07-15T14:44:37.531Z,101418.30
2018-07-15T14:49:39.712Z,101418.95
2018-07-15T14:54:41.871Z,101414.84
2018-07-15T14:59:44.024Z,101411.39
2018-07-15T15:04:46.234Z,101415.38
2018-07-15T15:09:48.435Z,101413.41
2018-07-15T15:14:50.618Z,101404.92
2018-07-15T15:19:52.831Z,101406.91
2018-07-15T15:24:55.007Z,101400.30
2018-07-15T15:29:57.263Z,101401.78
2018-07-15T15:34:59.447Z,101394.00
2018-07-15T15:40:01.653Z,101387.92
2018-07-15T15:45:03.976Z,101380.81
2018-07-15T15:50:06.166Z,101377.76
2018-07-15T15:55:08.376Z,101377.94
2018-07-15T16:00:10.775Z,101377.96
2018-07-15T16:05:12.980Z,101371.42
2018-07-15T16:10:15.228Z,101362.61
2018-07-15T16:15:17.405Z,101360.83
2018-07-15T16:20:19.575Z,101358.95
2018-07-15T16:25:21.765Z,101354.22
2018-07-15T16:30:23.966Z,101354.50
2018-07-15T16:35:26.198Z,101345.52
2018-07-15T16:40:28.395Z,101344.50
2018-07-15T16:45:30.608Z,101337.50
2018-07-15T16:50:32.795Z,101339.89
2018-07-15T16:55:35.136Z,101336.54
2018-07-15T17:00:37.485Z,101319.70
2018-07-15T17:05:39.611Z,101328.97
2018-07-15T17:10:41.795Z,101330.58
2018-07-15T17:15:44.025Z,101337.70
2018-07-15T17:20:46.582Z,101333.52
2018-07-15T17:25:48.772Z,101331.59
2018-07-15T17:30:50.908Z,101338.91
2018-07-15T17:35:53.132Z,101338.91
2018-07-15T17:40:55.328Z,101330.73
2018-07-15T17:45:57.520Z,101332.47
2018-07-15T17:50:59.679Z,101334.23
2018-07-15T17:56:01.885Z,101334.95
2018-07-15T18:01:04.064Z,101332.53
2018-07-15T18:06:06.297Z,101338.15
2018-07-15T18:11:08.600Z,101341.77
2018-07-15T18:16:10.901Z,101346.34
2018-07-15T18:21:13.152Z,101347.60
2018-07-15T18:26:15.333Z,101350.25
2018-07-15T18:31:17.594Z,101350.61
2018-07-15T18:36:19.829Z,101350.41
2018-07-15T18:41:22.063Z,101354.94
2018-07-15T18:46:24.281Z,101365.46
2018-07-15T18:51:26.561Z,101361.19
2018-07-15T18:56:28.839Z,101356.53
2018-07-15T19:01:31.010Z,101362.58
2018-07-15T19:06:33.220Z,101369.63
2018-07-15T19:11:35.433Z,101367.04
2018-07-15T19:16:37.691Z,101370.91
2018-07-15T19:21:39.908Z,101373.49
2018-07-15T19:26:42.220Z,101374.42
2018-07-15T19:31:44.547Z,101377.89
2018-07-15T19:36:46.820Z,101384.31
2018-07-15T19:41:49.014Z,101386.51
2018-07-15T19:46:51.285Z,101398.16
2018-07-15T19:51:53.506Z,101392.16
2018-07-15T19:56:55.768Z,101394.41
2018-07-15T20:01:57.954Z,101403.02
2018-07-15T20:07:00.273Z,101390.63
2018-07-15T20:12:02.546Z,101400.11
2018-07-15T20:17:04.991Z,101400.56
2018-07-15T20:22:07.274Z,101408.69
2018-07-15T20:27:09.526Z,101402.27
2018-07-15T20:32:12.715Z,101402.27
2018-07-15T20:37:14.957Z,101406.59
2018-07-15T20:42:17.211Z,101410.42
2018-07-15T20:47:19.464Z,101410.00
2018-07-15T20:52:21.652Z,101412.14
2018-07-15T20:57:24.116Z,101420.73
2018-07-15T21:02:26.357Z,101416.79
2018-07-15T21:07:28.551Z,101424.06
2018-07-15T21:12:30.723Z,101424.50
2018-07-15T21:17:32.915Z,101423.19
2018-07-15T21:22:35.315Z,101426.05
2018-07-15T21:27:37.498Z,101428.87
2018-07-15T21:32:39.754Z,101432.20
2018-07-15T21:37:42.040Z,101429.16
2018-07-15T21:42:44.240Z,101429.12
2018-07-15T21:47:46.424Z,101429.49
2018-07-15T21:52:48.662Z,101436.74
2018-07-15T21:57:50.855Z,101433.76
2018-07-15T22:02:53.109Z,101437.98
2018-07-15T22:08:06.702Z,101436.23
2018-07-15T22:13:08.848Z,101430.61
2018-07-15T22:18:11.063Z,101433.58
2018-07-15T22:23:13.228Z,101436.03
2018-07-15T22:28:15.378Z,101442.80
2018-07-15T22:33:17.555Z,101436.23
2018-07-15T22:38:19.823Z,101448.00
2018-07-15T22:43:22.006Z,101447.48
2018-07-15T22:48:24.194Z,101442.88
2018-07-15T22:53:26.377Z,101443.53
2018-07-15T22:58:28.545Z,101449.39
2018-07-15T23:03:30.773Z,101445.79
2018-07-15T23:08:33.089Z,101444.03
2018-07-15T23:13:35.230Z,101438.05
2018-07-15T23:18:37.400Z,101441.28
2018-07-15T23:23:39.593Z,101443.68
2018-07-15T23:28:41.732Z,101445.30
2018-07-15T23:33:43.882Z,101437.84
2018-07-15T23:38:46.068Z,101427.88
2018-07-15T23:43:48.225Z,101430.41
2018-07-15T23:48:50.388Z,101420.59
2018-07-15T23:53:52.571Z,101422.28
2018-07-15T23:58:54.708Z,101415.38
